sensor_id;sensor_type;location;lat;lon;timestamp;temperature;humidity
26326;DHT22;14032;52.510;7.342;2023-06-26T00:01:19;23.20;99.90
26326;DHT22;14032;52.510;7.342;2023-06-26T00:03:46;23.20;99.90
26326;DHT22;14032;52.510;7.342;2023-06-26T00:06:12;23.10;99.90
26326;DHT22;14032;52.510;7.342;2023-06-26T00:08:37;23.10;99.90
26326;DHT22;14032;52.510;7.342;2023-06-26T00:11:03;23.10;99.90
26326;DHT22;14032;52.510;7.342;2023-06-26T00:13:29;23.00;99.90
26326;DHT22;14032;52.510;7.342;2023-06-26T00:15:54;23.00;99.90
26326;DHT22;14032;52.510;7.342;2023-06-26T00:18:20;23.00;99.90
26326;DHT22;14032;52.510;7.342;2023-06-26T00:20:46;23.00;99.90
26326;DHT22;14032;52.510;7.342;2023-06-26T00:23:12;22.90;99.90
26326;DHT22;14032;52.510;7.342;2023-06-26T00:25:38;23.00;99.90
26326;DHT22;14032;52.510;7.342;2023-06-26T00:28:04;22.90;99.90
26326;DHT22;14032;52.510;7.342;2023-06-26T00:30:29;22.90;99.90
26326;DHT22;14032;52.510;7.342;2023-06-26T00:32:55;22.90;99.90
26326;DHT22;14032;52.510;7.342;2023-06-26T00:35:20;22.90;99.90
26326;DHT22;14032;52.510;7.342;2023-06-26T00:37:46;22.80;99.90
26326;DHT22;14032;52.510;7.342;2023-06-26T00:40:12;22.80;99.90
26326;DHT22;14032;52.510;7.342;2023-06-26T00:42:38;22.80;99.90
26326;DHT22;14032;52.510;7.342;2023-06-26T00:45:03;22.80;99.90
26326;DHT22;14032;52.510;7.342;2023-06-26T00:47:29;22.80;99.90
26326;DHT22;14032;52.510;7.342;2023-06-26T00:49:55;22.80;99.90
26326;DHT22;14032;52.510;7.342;2023-06-26T00:52:21;22.70;99.90
26326;DHT22;14032;52.510;7.342;2023-06-26T00:54:49;22.70;99.90
26326;DHT22;14032;52.510;7.342;2023-06-26T00:57:16;22.70;99.90
26326;DHT22;14032;52.510;7.342;2023-06-26T00:59:42;22.70;99.90
26326;DHT22;14032;52.510;7.342;2023-06-26T01:12:28;22.50;99.90
26326;DHT22;14032;52.510;7.342;2023-06-26T01:14:54;22.50;99.90
26326;DHT22;14032;52.510;7.342;2023-06-26T01:17:20;22.50;99.90
26326;DHT22;14032;52.510;7.342;2023-06-26T01:19:46;22.40;99.90
26326;DHT22;14032;52.510;7.342;2023-06-26T01:22:37;22.40;99.90
26326;DHT22;14032;52.510;7.342;2023-06-26T01:25:35;22.50;99.90
26326;DHT22;14032;52.510;7.342;2023-06-26T01:28:05;22.40;99.90
26326;DHT22;14032;52.510;7.342;2023-06-26T01:30:32;22.40;99.90
26326;DHT22;14032;52.510;7.342;2023-06-26T01:33:02;22.40;99.90
26326;DHT22;14032;52.510;7.342;2023-06-26T01:35:28;22.40;99.90
26326;DHT22;14032;52.510;7.342;2023-06-26T01:37:54;22.40;99.90
26326;DHT22;14032;52.510;7.342;2023-06-26T01:40:36;22.40;99.90
26326;DHT22;14032;52.510;7.342;2023-06-26T01:43:01;22.40;99.90
26326;DHT22;14032;52.510;7.342;2023-06-26T01:45:29;22.30;99.90
26326;DHT22;14032;52.510;7.342;2023-06-26T01:47:58;22.30;99.90
26326;DHT22;14032;52.510;7.342;2023-06-26T01:50:28;22.20;99.90
26326;DHT22;14032;52.510;7.342;2023-06-26T01:53:10;22.20;99.90
26326;DHT22;14032;52.510;7.342;2023-06-26T01:56:11;22.20;99.90
26326;DHT22;14032;52.510;7.342;2023-06-26T01:58:41;22.20;99.90
26326;DHT22;14032;52.510;7.342;2023-06-26T02:01:08;22.20;99.90
26326;DHT22;14032;52.510;7.342;2023-06-26T02:03:34;22.10;99.90
26326;DHT22;14032;52.510;7.342;2023-06-26T02:06:00;22.10;99.90
26326;DHT22;14032;52.510;7.342;2023-06-26T02:08:25;22.10;99.90
26326;DHT22;14032;52.510;7.342;2023-06-26T02:10:51;22.00;99.90
26326;DHT22;14032;52.510;7.342;2023-06-26T02:13:16;22.00;99.90
26326;DHT22;14032;52.510;7.342;2023-06-26T02:15:42;22.00;99.90
26326;DHT22;14032;52.510;7.342;2023-06-26T02:18:07;21.90;99.90
26326;DHT22;14032;52.510;7.342;2023-06-26T02:20:33;21.90;99.90
26326;DHT22;14032;52.510;7.342;2023-06-26T02:22:59;21.90;99.90
26326;DHT22;14032;52.510;7.342;2023-06-26T02:25:24;21.90;99.90
26326;DHT22;14032;52.510;7.342;2023-06-26T02:27:50;21.90;99.90
26326;DHT22;14032;52.510;7.342;2023-06-26T02:30:15;21.90;99.90
26326;DHT22;14032;52.510;7.342;2023-06-26T02:32:41;21.80;99.90
26326;DHT22;14032;52.510;7.342;2023-06-26T02:35:07;21.80;99.90
26326;DHT22;14032;52.510;7.342;2023-06-26T02:37:32;21.80;99.90
26326;DHT22;14032;52.510;7.342;2023-06-26T02:39:58;21.70;99.90
26326;DHT22;14032;52.510;7.342;2023-06-26T02:42:24;21.80;99.90
26326;DHT22;14032;52.510;7.342;2023-06-26T02:44:49;21.70;99.90
26326;DHT22;14032;52.510;7.342;2023-06-26T02:47:15;21.70;99.90
26326;DHT22;14032;52.510;7.342;2023-06-26T02:49:40;21.70;99.90
26326;DHT22;14032;52.510;7.342;2023-06-26T02:52:06;21.60;99.90
26326;DHT22;14032;52.510;7.342;2023-06-26T02:54:31;21.60;99.90
26326;DHT22;14032;52.510;7.342;2023-06-26T02:56:58;21.50;99.90
26326;DHT22;14032;52.510;7.342;2023-06-26T02:59:24;21.50;99.90
26326;DHT22;14032;52.510;7.342;2023-06-26T03:01:50;21.40;99.90
26326;DHT22;14032;52.510;7.342;2023-06-26T03:04:16;21.50;99.90
26326;DHT22;14032;52.510;7.342;2023-06-26T03:06:43;21.40;99.90
26326;DHT22;14032;52.510;7.342;2023-06-26T03:09:09;21.40;99.90
26326;DHT22;14032;52.510;7.342;2023-06-26T03:11:34;21.30;99.90
26326;DHT22;14032;52.510;7.342;2023-06-26T03:14:00;21.30;99.90
26326;DHT22;14032;52.510;7.342;2023-06-26T03:16:25;21.30;99.90
26326;DHT22;14032;52.510;7.342;2023-06-26T03:18:51;21.20;99.90
26326;DHT22;14032;52.510;7.342;2023-06-26T03:21:17;21.20;99.90
26326;DHT22;14032;52.510;7.342;2023-06-26T03:23:42;21.30;99.90
26326;DHT22;14032;52.510;7.342;2023-06-26T03:26:08;21.20;99.90
26326;DHT22;14032;52.510;7.342;2023-06-26T03:28:33;21.30;99.90
26326;DHT22;14032;52.510;7.342;2023-06-26T03:30:59;21.20;99.90
26326;DHT22;14032;52.510;7.342;2023-06-26T03:33:25;21.30;99.90
26326;DHT22;14032;52.510;7.342;2023-06-26T03:35:50;21.30;99.90
26326;DHT22;14032;52.510;7.342;2023-06-26T03:38:16;21.20;99.90
26326;DHT22;14032;52.510;7.342;2023-06-26T03:40:42;21.20;99.90
26326;DHT22;14032;52.510;7.342;2023-06-26T03:43:07;21.20;99.90
26326;DHT22;14032;52.510;7.342;2023-06-26T03:45:33;21.20;99.90
26326;DHT22;14032;52.510;7.342;2023-06-26T03:47:59;21.10;99.90
26326;DHT22;14032;52.510;7.342;2023-06-26T03:50:24;21.20;99.90
26326;DHT22;14032;52.510;7.342;2023-06-26T03:52:50;21.10;99.90
26326;DHT22;14032;52.510;7.342;2023-06-26T03:55:17;21.10;99.90
26326;DHT22;14032;52.510;7.342;2023-06-26T03:57:43;21.10;99.90
26326;DHT22;14032;52.510;7.342;2023-06-26T04:00:09;21.10;99.90
26326;DHT22;14032;52.510;7.342;2023-06-26T04:02:35;21.10;99.90
26326;DHT22;14032;52.510;7.342;2023-06-26T04:05:01;21.10;99.90
26326;DHT22;14032;52.510;7.342;2023-06-26T04:07:26;21.10;99.90
26326;DHT22;14032;52.510;7.342;2023-06-26T04:09:52;21.10;99.90
26326;DHT22;14032;52.510;7.342;2023-06-26T04:12:18;21.10;99.90
26326;DHT22;14032;52.510;7.342;2023-06-26T04:14:43;21.10;99.90
26326;DHT22;14032;52.510;7.342;2023-06-26T04:17:10;21.10;99.90
26326;DHT22;14032;52.510;7.342;2023-06-26T04:19:35;21.10;99.90
26326;DHT22;14032;52.510;7.342;2023-06-26T04:22:02;21.10;99.90
26326;DHT22;14032;52.510;7.342;2023-06-26T04:24:27;21.10;99.90
26326;DHT22;14032;52.510;7.342;2023-06-26T04:26:53;21.10;99.90
26326;DHT22;14032;52.510;7.342;2023-06-26T04:29:25;21.20;99.90
26326;DHT22;14032;52.510;7.342;2023-06-26T04:31:52;21.20;99.90
26326;DHT22;14032;52.510;7.342;2023-06-26T04:34:19;21.20;99.90
26326;DHT22;14032;52.510;7.342;2023-06-26T04:36:44;21.30;99.90
26326;DHT22;14032;52.510;7.342;2023-06-26T04:39:13;21.30;99.90
26326;DHT22;14032;52.510;7.342;2023-06-26T04:41:40;21.30;99.90
26326;DHT22;14032;52.510;7.342;2023-06-26T04:44:06;21.40;99.90
26326;DHT22;14032;52.510;7.342;2023-06-26T04:46:31;21.40;99.90
26326;DHT22;14032;52.510;7.342;2023-06-26T04:48:57;21.40;99.90
26326;DHT22;14032;52.510;7.342;2023-06-26T04:51:24;21.50;99.90
26326;DHT22;14032;52.510;7.342;2023-06-26T04:53:50;21.50;99.90
26326;DHT22;14032;52.510;7.342;2023-06-26T04:56:15;21.50;99.90
26326;DHT22;14032;52.510;7.342;2023-06-26T04:58:41;21.50;99.90
26326;DHT22;14032;52.510;7.342;2023-06-26T05:01:06;21.50;99.90
26326;DHT22;14032;52.510;7.342;2023-06-26T05:03:32;21.60;99.90
26326;DHT22;14032;52.510;7.342;2023-06-26T05:05:58;21.60;99.90
26326;DHT22;14032;52.510;7.342;2023-06-26T05:08:24;21.60;99.90
26326;DHT22;14032;52.510;7.342;2023-06-26T05:10:51;21.60;99.90
26326;DHT22;14032;52.510;7.342;2023-06-26T05:13:18;21.70;99.90
26326;DHT22;14032;52.510;7.342;2023-06-26T05:15:46;21.70;99.90
26326;DHT22;14032;52.510;7.342;2023-06-26T05:18:12;21.60;99.90
26326;DHT22;14032;52.510;7.342;2023-06-26T05:20:38;21.70;99.90
26326;DHT22;14032;52.510;7.342;2023-06-26T05:23:04;21.70;99.90
26326;DHT22;14032;52.510;7.342;2023-06-26T05:25:30;21.70;99.90
26326;DHT22;14032;52.510;7.342;2023-06-26T05:27:57;21.80;99.90
26326;DHT22;14032;52.510;7.342;2023-06-26T05:30:26;21.80;99.90
26326;DHT22;14032;52.510;7.342;2023-06-26T05:32:53;21.90;99.90
26326;DHT22;14032;52.510;7.342;2023-06-26T05:35:22;21.90;99.90
26326;DHT22;14032;52.510;7.342;2023-06-26T05:37:49;21.90;99.90
26326;DHT22;14032;52.510;7.342;2023-06-26T05:40:17;22.00;99.90
26326;DHT22;14032;52.510;7.342;2023-06-26T05:42:43;22.10;99.90
26326;DHT22;14032;52.510;7.342;2023-06-26T05:45:09;22.10;99.90
26326;DHT22;14032;52.510;7.342;2023-06-26T05:47:35;22.10;99.90
26326;DHT22;14032;52.510;7.342;2023-06-26T05:50:01;22.20;99.90
26326;DHT22;14032;52.510;7.342;2023-06-26T05:52:27;22.20;99.90
26326;DHT22;14032;52.510;7.342;2023-06-26T05:54:53;22.30;99.90
26326;DHT22;14032;52.510;7.342;2023-06-26T05:57:20;22.30;99.90
26326;DHT22;14032;52.510;7.342;2023-06-26T05:59:46;22.40;99.90
26326;DHT22;14032;52.510;7.342;2023-06-26T06:02:18;22.30;99.90
26326;DHT22;14032;52.510;7.342;2023-06-26T06:04:44;22.30;99.90
26326;DHT22;14032;52.510;7.342;2023-06-26T06:07:09;22.30;99.90
26326;DHT22;14032;52.510;7.342;2023-06-26T06:09:35;22.30;99.90
26326;DHT22;14032;52.510;7.342;2023-06-26T06:12:00;22.30;99.90
26326;DHT22;14032;52.510;7.342;2023-06-26T06:14:27;22.20;99.90
26326;DHT22;14032;52.510;7.342;2023-06-26T06:16:53;22.30;99.90
26326;DHT22;14032;52.510;7.342;2023-06-26T06:19:19;22.20;99.90
26326;DHT22;14032;52.510;7.342;2023-06-26T06:21:44;22.10;99.90
26326;DHT22;14032;52.510;7.342;2023-06-26T06:24:10;22.10;99.90
26326;DHT22;14032;52.510;7.342;2023-06-26T06:26:35;22.00;99.90
26326;DHT22;14032;52.510;7.342;2023-06-26T06:29:01;22.00;99.90
26326;DHT22;14032;52.510;7.342;2023-06-26T06:31:27;21.90;99.90
26326;DHT22;14032;52.510;7.342;2023-06-26T06:33:55;21.80;99.90
26326;DHT22;14032;52.510;7.342;2023-06-26T06:36:21;21.70;99.90
26326;DHT22;14032;52.510;7.342;2023-06-26T06:38:46;21.60;99.90
26326;DHT22;14032;52.510;7.342;2023-06-26T06:41:12;21.50;99.90
26326;DHT22;14032;52.510;7.342;2023-06-26T06:43:38;21.40;99.90
26326;DHT22;14032;52.510;7.342;2023-06-26T06:46:04;21.20;99.90
26326;DHT22;14032;52.510;7.342;2023-06-26T06:48:30;21.20;99.90
26326;DHT22;14032;52.510;7.342;2023-06-26T06:50:55;21.10;99.90
26326;DHT22;14032;52.510;7.342;2023-06-26T06:53:21;21.00;99.90
26326;DHT22;14032;52.510;7.342;2023-06-26T06:55:47;21.00;99.90
26326;DHT22;14032;52.510;7.342;2023-06-26T06:58:12;21.00;99.90
26326;DHT22;14032;52.510;7.342;2023-06-26T07:00:38;21.00;99.90
26326;DHT22;14032;52.510;7.342;2023-06-26T07:03:04;21.10;99.90
26326;DHT22;14032;52.510;7.342;2023-06-26T07:05:29;21.10;99.90
26326;DHT22;14032;52.510;7.342;2023-06-26T07:07:55;21.10;99.90
26326;DHT22;14032;52.510;7.342;2023-06-26T07:10:21;21.10;99.90
26326;DHT22;14032;52.510;7.342;2023-06-26T07:12:46;21.20;99.90
26326;DHT22;14032;52.510;7.342;2023-06-26T07:15:12;21.20;99.90
26326;DHT22;14032;52.510;7.342;2023-06-26T07:17:38;21.20;99.90
26326;DHT22;14032;52.510;7.342;2023-06-26T07:20:05;21.30;99.90
26326;DHT22;14032;52.510;7.342;2023-06-26T07:22:36;21.30;99.90
26326;DHT22;14032;52.510;7.342;2023-06-26T07:25:02;21.40;99.90
26326;DHT22;14032;52.510;7.342;2023-06-26T07:27:29;21.40;99.90
26326;DHT22;14032;52.510;7.342;2023-06-26T07:29:55;21.40;99.90
26326;DHT22;14032;52.510;7.342;2023-06-26T07:32:20;21.40;99.90
26326;DHT22;14032;52.510;7.342;2023-06-26T07:34:46;21.40;99.90
26326;DHT22;14032;52.510;7.342;2023-06-26T07:37:11;21.60;99.90
26326;DHT22;14032;52.510;7.342;2023-06-26T07:39:37;21.70;99.90
26326;DHT22;14032;52.510;7.342;2023-06-26T07:42:04;21.80;99.90
26326;DHT22;14032;52.510;7.342;2023-06-26T07:44:29;22.00;99.90
26326;DHT22;14032;52.510;7.342;2023-06-26T07:46:55;22.10;99.90
26326;DHT22;14032;52.510;7.342;2023-06-26T07:49:21;22.10;99.90
26326;DHT22;14032;52.510;7.342;2023-06-26T07:51:46;22.20;99.90
26326;DHT22;14032;52.510;7.342;2023-06-26T07:54:12;22.30;99.90
26326;DHT22;14032;52.510;7.342;2023-06-26T07:57:07;22.40;99.90
26326;DHT22;14032;52.510;7.342;2023-06-26T07:59:34;22.50;99.90
26326;DHT22;14032;52.510;7.342;2023-06-26T08:02:00;22.60;99.90
26326;DHT22;14032;52.510;7.342;2023-06-26T08:04:28;22.60;99.90
26326;DHT22;14032;52.510;7.342;2023-06-26T08:06:56;22.60;99.90
26326;DHT22;14032;52.510;7.342;2023-06-26T08:09:25;22.60;99.90
26326;DHT22;14032;52.510;7.342;2023-06-26T08:11:50;22.60;99.90
26326;DHT22;14032;52.510;7.342;2023-06-26T08:14:17;22.50;99.90
26326;DHT22;14032;52.510;7.342;2023-06-26T08:16:43;22.50;99.90
26326;DHT22;14032;52.510;7.342;2023-06-26T08:19:09;22.50;99.90
26326;DHT22;14032;52.510;7.342;2023-06-26T08:21:35;22.50;99.90
26326;DHT22;14032;52.510;7.342;2023-06-26T08:24:01;22.60;99.90
26326;DHT22;14032;52.510;7.342;2023-06-26T08:26:27;22.60;99.90
26326;DHT22;14032;52.510;7.342;2023-06-26T08:28:53;22.60;99.90
26326;DHT22;14032;52.510;7.342;2023-06-26T08:31:19;22.70;99.90
26326;DHT22;14032;52.510;7.342;2023-06-26T08:33:45;22.90;99.90
26326;DHT22;14032;52.510;7.342;2023-06-26T08:36:10;22.90;99.90
26326;DHT22;14032;52.510;7.342;2023-06-26T08:38:36;22.90;99.90
26326;DHT22;14032;52.510;7.342;2023-06-26T08:41:01;23.00;99.90
26326;DHT22;14032;52.510;7.342;2023-06-26T08:43:47;23.00;99.90
26326;DHT22;14032;52.510;7.342;2023-06-26T08:46:14;23.10;99.90
26326;DHT22;14032;52.510;7.342;2023-06-26T08:48:42;23.10;99.90
26326;DHT22;14032;52.510;7.342;2023-06-26T08:51:12;23.20;99.90
26326;DHT22;14032;52.510;7.342;2023-06-26T08:54:02;23.30;99.90
26326;DHT22;14032;52.510;7.342;2023-06-26T08:56:42;23.30;99.90
26326;DHT22;14032;52.510;7.342;2023-06-26T08:59:08;23.40;99.90
26326;DHT22;14032;52.510;7.342;2023-06-26T09:01:37;23.40;99.90
26326;DHT22;14032;52.510;7.342;2023-06-26T09:04:03;23.30;99.90
26326;DHT22;14032;52.510;7.342;2023-06-26T09:06:29;23.10;99.90
26326;DHT22;14032;52.510;7.342;2023-06-26T09:08:55;23.00;99.90
26326;DHT22;14032;52.510;7.342;2023-06-26T09:11:20;22.80;99.90
26326;DHT22;14032;52.510;7.342;2023-06-26T09:13:46;22.60;99.90
26326;DHT22;14032;52.510;7.342;2023-06-26T09:16:13;22.70;99.90
26326;DHT22;14032;52.510;7.342;2023-06-26T09:18:40;22.70;99.90
26326;DHT22;14032;52.510;7.342;2023-06-26T09:21:08;22.80;99.90
26326;DHT22;14032;52.510;7.342;2023-06-26T09:23:34;22.90;99.90
26326;DHT22;14032;52.510;7.342;2023-06-26T09:26:05;23.00;99.90
26326;DHT22;14032;52.510;7.342;2023-06-26T09:28:32;23.10;99.90
26326;DHT22;14032;52.510;7.342;2023-06-26T09:31:06;23.10;99.90
26326;DHT22;14032;52.510;7.342;2023-06-26T09:33:34;23.20;99.90
26326;DHT22;14032;52.510;7.342;2023-06-26T09:36:01;23.20;99.90
26326;DHT22;14032;52.510;7.342;2023-06-26T09:38:27;23.40;99.90
26326;DHT22;14032;52.510;7.342;2023-06-26T09:40:53;23.50;99.90
26326;DHT22;14032;52.510;7.342;2023-06-26T09:45:54;23.50;99.90
26326;DHT22;14032;52.510;7.342;2023-06-26T09:48:20;23.50;99.90
26326;DHT22;14032;52.510;7.342;2023-06-26T09:50:46;23.30;99.90
26326;DHT22;14032;52.510;7.342;2023-06-26T09:53:13;23.30;99.90
26326;DHT22;14032;52.510;7.342;2023-06-26T09:55:40;23.30;99.90
26326;DHT22;14032;52.510;7.342;2023-06-26T09:58:11;23.20;99.90
26326;DHT22;14032;52.510;7.342;2023-06-26T10:00:41;23.00;99.90
26326;DHT22;14032;52.510;7.342;2023-06-26T10:03:07;22.90;99.90
26326;DHT22;14032;52.510;7.342;2023-06-26T10:05:33;22.90;99.90
26326;DHT22;14032;52.510;7.342;2023-06-26T10:07:59;23.00;99.90
26326;DHT22;14032;52.510;7.342;2023-06-26T10:10:27;23.20;99.90
26326;DHT22;14032;52.510;7.342;2023-06-26T10:12:59;23.50;99.90
26326;DHT22;14032;52.510;7.342;2023-06-26T10:15:27;23.60;99.90
26326;DHT22;14032;52.510;7.342;2023-06-26T10:17:56;23.60;99.90
26326;DHT22;14032;52.510;7.342;2023-06-26T10:20:23;23.50;99.90
26326;DHT22;14032;52.510;7.342;2023-06-26T10:22:50;23.40;99.90
26326;DHT22;14032;52.510;7.342;2023-06-26T10:25:19;23.50;99.90
26326;DHT22;14032;52.510;7.342;2023-06-26T10:27:58;23.60;99.90
26326;DHT22;14032;52.510;7.342;2023-06-26T10:30:31;23.80;99.90
26326;DHT22;14032;52.510;7.342;2023-06-26T10:32:59;23.90;99.90
26326;DHT22;14032;52.510;7.342;2023-06-26T10:35:25;23.90;99.90
26326;DHT22;14032;52.510;7.342;2023-06-26T10:37:52;23.90;99.90
26326;DHT22;14032;52.510;7.342;2023-06-26T10:40:26;24.00;99.90
26326;DHT22;14032;52.510;7.342;2023-06-26T10:43:05;24.00;99.90
26326;DHT22;14032;52.510;7.342;2023-06-26T10:45:33;24.00;99.90
26326;DHT22;14032;52.510;7.342;2023-06-26T10:47:59;23.90;99.90
26326;DHT22;14032;52.510;7.342;2023-06-26T10:50:26;23.80;99.90
26326;DHT22;14032;52.510;7.342;2023-06-26T10:55:34;24.00;99.90
26326;DHT22;14032;52.510;7.342;2023-06-26T10:58:01;24.10;99.90
26326;DHT22;14032;52.510;7.342;2023-06-26T11:00:27;24.10;99.40
26326;DHT22;14032;52.510;7.342;2023-06-26T11:02:53;24.20;99.80
26326;DHT22;14032;52.510;7.342;2023-06-26T11:05:26;24.10;98.70
26326;DHT22;14032;52.510;7.342;2023-06-26T11:08:21;24.10;99.90
26326;DHT22;14032;52.510;7.342;2023-06-26T11:11:07;23.90;99.90
26326;DHT22;14032;52.510;7.342;2023-06-26T11:13:34;23.70;99.90
26326;DHT22;14032;52.510;7.342;2023-06-26T11:16:01;23.60;99.90
26326;DHT22;14032;52.510;7.342;2023-06-26T11:18:27;23.60;99.90
26326;DHT22;14032;52.510;7.342;2023-06-26T11:20:53;23.60;99.90
26326;DHT22;14032;52.510;7.342;2023-06-26T11:23:22;23.60;99.90
26326;DHT22;14032;52.510;7.342;2023-06-26T11:25:49;23.70;99.90
26326;DHT22;14032;52.510;7.342;2023-06-26T11:28:15;23.80;99.90
26326;DHT22;14032;52.510;7.342;2023-06-26T11:41:30;23.40;99.90
26326;DHT22;14032;52.510;7.342;2023-06-26T11:44:00;23.10;99.90
26326;DHT22;14032;52.510;7.342;2023-06-26T11:46:25;22.90;99.90
26326;DHT22;14032;52.510;7.342;2023-06-26T11:48:52;22.80;99.90
26326;DHT22;14032;52.510;7.342;2023-06-26T11:51:19;22.80;99.90
26326;DHT22;14032;52.510;7.342;2023-06-26T12:01:45;23.20;99.40
26326;DHT22;14032;52.510;7.342;2023-06-26T12:04:12;23.10;99.40
26326;DHT22;14032;52.510;7.342;2023-06-26T12:06:40;23.00;99.70
26326;DHT22;14032;52.510;7.342;2023-06-26T12:09:08;22.90;99.70
26326;DHT22;14032;52.510;7.342;2023-06-26T12:11:35;22.80;97.60
26326;DHT22;14032;52.510;7.342;2023-06-26T12:14:02;22.70;98.50
26326;DHT22;14032;52.510;7.342;2023-06-26T12:16:30;22.70;98.70
26326;DHT22;14032;52.510;7.342;2023-06-26T12:19:06;22.70;98.40
26326;DHT22;14032;52.510;7.342;2023-06-26T12:24:08;22.70;97.10
26326;DHT22;14032;52.510;7.342;2023-06-26T12:26:34;22.80;97.50
26326;DHT22;14032;52.510;7.342;2023-06-26T12:29:08;22.80;96.20
26326;DHT22;14032;52.510;7.342;2023-06-26T12:31:33;22.80;93.90
26326;DHT22;14032;52.510;7.342;2023-06-26T12:34:00;22.80;93.30
26326;DHT22;14032;52.510;7.342;2023-06-26T12:36:26;22.80;94.10
26326;DHT22;14032;52.510;7.342;2023-06-26T12:38:53;22.80;93.40
26326;DHT22;14032;52.510;7.342;2023-06-26T12:41:19;22.90;94.50
26326;DHT22;14032;52.510;7.342;2023-06-26T12:43:48;23.00;95.40
26326;DHT22;14032;52.510;7.342;2023-06-26T12:46:14;23.00;94.70
26326;DHT22;14032;52.510;7.342;2023-06-26T12:48:43;22.90;94.90
26326;DHT22;14032;52.510;7.342;2023-06-26T12:51:13;22.90;93.80
26326;DHT22;14032;52.510;7.342;2023-06-26T12:53:40;22.80;93.10
26326;DHT22;14032;52.510;7.342;2023-06-26T12:56:10;22.90;92.70
26326;DHT22;14032;52.510;7.342;2023-06-26T12:58:36;22.80;93.40
26326;DHT22;14032;52.510;7.342;2023-06-26T13:01:04;22.80;93.50
26326;DHT22;14032;52.510;7.342;2023-06-26T13:03:31;22.90;93.30
26326;DHT22;14032;52.510;7.342;2023-06-26T13:05:56;22.90;92.40
26326;DHT22;14032;52.510;7.342;2023-06-26T13:08:22;23.00;93.50
26326;DHT22;14032;52.510;7.342;2023-06-26T13:10:48;23.00;94.30
26326;DHT22;14032;52.510;7.342;2023-06-26T13:31:19;22.70;94.00
26326;DHT22;14032;52.510;7.342;2023-06-26T13:33:46;22.60;93.40
26326;DHT22;14032;52.510;7.342;2023-06-26T13:36:14;22.50;93.50
26326;DHT22;14032;52.510;7.342;2023-06-26T13:38:39;22.50;93.70
26326;DHT22;14032;52.510;7.342;2023-06-26T13:41:05;22.40;92.50
26326;DHT22;14032;52.510;7.342;2023-06-26T13:43:31;22.40;92.90
26326;DHT22;14032;52.510;7.342;2023-06-26T13:45:56;22.40;93.00
26326;DHT22;14032;52.510;7.342;2023-06-26T13:48:22;22.40;92.70
26326;DHT22;14032;52.510;7.342;2023-06-26T13:50:51;22.50;94.40
26326;DHT22;14032;52.510;7.342;2023-06-26T13:53:17;22.60;94.30
26326;DHT22;14032;52.510;7.342;2023-06-26T13:55:43;22.60;94.00
26326;DHT22;14032;52.510;7.342;2023-06-26T13:58:09;22.60;94.30
26326;DHT22;14032;52.510;7.342;2023-06-26T14:00:35;22.60;94.50
26326;DHT22;14032;52.510;7.342;2023-06-26T14:03:02;22.50;94.50
26326;DHT22;14032;52.510;7.342;2023-06-26T14:05:29;22.50;94.80
26326;DHT22;14032;52.510;7.342;2023-06-26T14:07:55;22.40;95.30
26326;DHT22;14032;52.510;7.342;2023-06-26T14:10:21;22.40;95.80
26326;DHT22;14032;52.510;7.342;2023-06-26T14:12:47;22.40;96.50
26326;DHT22;14032;52.510;7.342;2023-06-26T14:15:13;22.40;95.90
26326;DHT22;14032;52.510;7.342;2023-06-26T14:17:38;22.40;95.40
26326;DHT22;14032;52.510;7.342;2023-06-26T14:20:06;22.40;95.80
26326;DHT22;14032;52.510;7.342;2023-06-26T14:22:35;22.30;95.30
26326;DHT22;14032;52.510;7.342;2023-06-26T14:25:01;22.30;95.70
26326;DHT22;14032;52.510;7.342;2023-06-26T14:27:27;22.30;96.50
26326;DHT22;14032;52.510;7.342;2023-06-26T14:29:52;22.30;94.60
26326;DHT22;14032;52.510;7.342;2023-06-26T14:32:18;22.20;94.90
26326;DHT22;14032;52.510;7.342;2023-06-26T14:34:43;22.20;95.40
26326;DHT22;14032;52.510;7.342;2023-06-26T14:37:09;22.30;95.80
26326;DHT22;14032;52.510;7.342;2023-06-26T14:39:35;22.20;96.00
26326;DHT22;14032;52.510;7.342;2023-06-26T14:42:00;22.20;96.40
26326;DHT22;14032;52.510;7.342;2023-06-26T14:44:26;22.10;96.70
26326;DHT22;14032;52.510;7.342;2023-06-26T14:46:51;22.10;96.70
26326;DHT22;14032;52.510;7.342;2023-06-26T14:49:17;22.00;96.60
26326;DHT22;14032;52.510;7.342;2023-06-26T14:51:44;22.00;96.80
26326;DHT22;14032;52.510;7.342;2023-06-26T14:54:10;22.10;97.50
26326;DHT22;14032;52.510;7.342;2023-06-26T14:56:35;22.10;96.30
26326;DHT22;14032;52.510;7.342;2023-06-26T14:59:01;22.10;95.30
26326;DHT22;14032;52.510;7.342;2023-06-26T15:01:26;22.20;95.70
26326;DHT22;14032;52.510;7.342;2023-06-26T15:03:52;22.10;95.70
26326;DHT22;14032;52.510;7.342;2023-06-26T15:06:17;22.20;95.20
26326;DHT22;14032;52.510;7.342;2023-06-26T15:08:43;22.10;94.80
26326;DHT22;14032;52.510;7.342;2023-06-26T15:11:09;22.10;94.30
26326;DHT22;14032;52.510;7.342;2023-06-26T15:13:34;22.20;94.60
26326;DHT22;14032;52.510;7.342;2023-06-26T15:16:00;22.20;95.20
26326;DHT22;14032;52.510;7.342;2023-06-26T15:18:26;22.10;95.90
26326;DHT22;14032;52.510;7.342;2023-06-26T15:20:51;22.00;96.10
26326;DHT22;14032;52.510;7.342;2023-06-26T15:23:17;21.90;96.40
26326;DHT22;14032;52.510;7.342;2023-06-26T15:25:42;21.80;96.60
26326;DHT22;14032;52.510;7.342;2023-06-26T15:28:08;21.70;96.50
26326;DHT22;14032;52.510;7.342;2023-06-26T15:30:33;21.60;95.90
26326;DHT22;14032;52.510;7.342;2023-06-26T15:32:59;21.50;96.40
26326;DHT22;14032;52.510;7.342;2023-06-26T15:35:25;21.50;96.40
26326;DHT22;14032;52.510;7.342;2023-06-26T15:37:50;21.50;96.70
26326;DHT22;14032;52.510;7.342;2023-06-26T15:40:16;21.40;96.60
26326;DHT22;14032;52.510;7.342;2023-06-26T15:42:49;21.40;96.00
26326;DHT22;14032;52.510;7.342;2023-06-26T15:45:15;21.50;96.20
26326;DHT22;14032;52.510;7.342;2023-06-26T15:47:43;21.50;95.10
26326;DHT22;14032;52.510;7.342;2023-06-26T15:50:09;21.50;96.00
26326;DHT22;14032;52.510;7.342;2023-06-26T15:52:35;21.50;96.20
26326;DHT22;14032;52.510;7.342;2023-06-26T15:55:01;21.50;95.90
26326;DHT22;14032;52.510;7.342;2023-06-26T15:57:27;21.60;95.90
26326;DHT22;14032;52.510;7.342;2023-06-26T15:59:52;21.60;95.10
26326;DHT22;14032;52.510;7.342;2023-06-26T16:02:18;21.60;95.10
26326;DHT22;14032;52.510;7.342;2023-06-26T16:04:44;21.50;95.10
26326;DHT22;14032;52.510;7.342;2023-06-26T16:07:09;21.50;95.70
26326;DHT22;14032;52.510;7.342;2023-06-26T16:09:35;21.40;96.30
26326;DHT22;14032;52.510;7.342;2023-06-26T16:12:00;21.40;96.40
26326;DHT22;14032;52.510;7.342;2023-06-26T16:14:26;21.40;96.70
26326;DHT22;14032;52.510;7.342;2023-06-26T16:16:52;21.40;96.10
26326;DHT22;14032;52.510;7.342;2023-06-26T16:19:17;21.50;95.60
26326;DHT22;14032;52.510;7.342;2023-06-26T16:21:43;21.50;96.20
26326;DHT22;14032;52.510;7.342;2023-06-26T16:24:09;21.50;95.20